Ingham Composite, Australia
Current Conditions -  °F | °C
As of 4:00 AM on Tuesday 27 Jan 2015 (Local Time) from YBTL Reporting Station
Clear Clear  
Wind Chill: 84°   Ceiling: Unl
Heat Index: 96°   Visibility: 6mi
Dew Point: 79°   Wind: 0mph
Humidity: 84%   Direction: NA
Pressure: 29.56"   Gusts: NA
Location:  18.63°S, 146.17°E
Report Text: YBTL 261800Z AUTO 00000KT 9999 // NCD 29/26 Q1001
Loading
Personal Weather Stations






























Interactive Weather Map New forecast layout! Learn more

10-Day Weather Forecast

Advertisements
Track Severe Weather on mobile